Home > Products > Valid Products > TAF

000
FTUS43 KICT 220325 AAA
TAFSLN
TAF AMD
KSLN 220325Z 2203/2224 17012KT 5SM BR OVC006
     FM221300 27015KT P6SM SCT020 BKN030
     FM221700 30018G26KT P6SM SCT100=



000
FTUS43 KICT 220323 AAA
TAFCNU
TAF AMD
KCNU 220323Z 2203/2224 17015KT P6SM OVC012
     FM221700 23015KT P6SM SCT020 BKN035
     FM222000 27014KT P6SM SCT030=



000
FTUS43 KICT 220322 AAA
TAFICT
TAF AMD
KICT 220322Z 2203/2224 16015G20KT 6SM BR OVC006
     FM221300 27015KT P6SM SCT020 BKN035
     FM221700 30017G24KT P6SM SCT100=



000
FTUS43 KICT 212333
TAFSLN
TAF
KSLN 212333Z 2200/2224 17012KT 4SM BR OVC008
      TEMPO 2201/2204 2SM -DZ BR OVC005
     FM220400 17014KT 4SM -DZ BR OVC005
     FM221300 27015KT P6SM SCT020 BKN030
     FM221700 30018G26KT P6SM SCT100=



000
FTUS43 KICT 212333
TAFRSL
TAF
KRSL 212333Z 2200/2224 17013KT P6SM BKN018
      TEMPO 2200/2203 5SM BR BKN010
     FM220900 23012KT P6SM BKN020
     FM221100 28015KT P6SM SCT015 BKN100
     FM221600 31022G32KT P6SM SCT100=



000
FTUS43 KICT 212333
TAFHUT
TAF
KHUT 212333Z 2200/2224 17014KT 4SM BR OVC006
      TEMPO 2200/2203 2SM -DZ BR OVC004
     FM220300 17014KT 2SM -DZ BR OVC004
     FM221300 27015KT P6SM SCT020 BKN035
     FM221600 30017G24KT P6SM SCT100=



000
FTUS43 KICT 212333
TAFICT
TAF
KICT 212333Z 2200/2224 16013KT 3SM BR OVC006
      TEMPO 2200/2203 2SM -DZ BR OVC005
     FM220300 17014KT 3SM -DZ BR OVC005
     FM221300 27015KT P6SM SCT020 BKN035
     FM221700 30017G24KT P6SM SCT100=



000
FTUS43 KICT 212333
TAFCNU
TAF
KCNU 212333Z 2200/2224 17014KT P6SM OVC012
     FM220300 16014KT 4SM -DZ BR OVC008
     FM221700 23015KT P6SM SCT020 BKN035
     FM222000 27014KT P6SM SCT030=



000
FTUS43 KICT 212210 AAA
TAFRSL
TAF AMD
KRSL 212210Z 2122/2218 17014KT P6SM OVC015
      TEMPO 2122/2201 BKN010
     FM220600 18015G22KT 5SM BR OVC012
     FM221100 27015KT P6SM SCT015 BKN100
     FM221500 29015KT P6SM SCT100=



000
FTUS43 KICT 212208 AAA
TAFCNU
TAF AMD
KCNU 212208Z 2122/2218 17012KT P6SM OVC012
     FM220300 22010KT 4SM -DZ BR OVC006
     FM221600 27015KT P6SM SCT015 BKN100=



000
FTUS43 KICT 212206 AAA
TAFHUT
TAF AMD
KHUT 212206Z 2122/2218 17014KT 4SM BR OVC007
      TEMPO 2122/2201 1SM -DZ BR OVC004
     FM220100 22010KT 4SM -DZ BR OVC006
     FM221300 27015KT P6SM SCT015 BKN100
     FM221600 29015KT P6SM SCT100=



000
FTUS43 KICT 212204 AAA
TAFICT
TAF AMD
KICT 212204Z 2122/2218 17014KT 3SM BR OVC008
      TEMPO 2122/2201 1SM -DZ BR OVC004
     FM220100 22010KT 4SM -DZ BR OVC006
     FM221400 27015KT P6SM SCT015 BKN100
     FM221700 29015KT P6SM SCT100=



000
FTUS43 KICT 211724
TAFCNU
TAF
KCNU 211724Z 2118/2218 17012KT P6SM OVC010
     FM212200 17015G21KT 4SM BR OVC008
     FM220300 22010KT 4SM -DZ BR OVC006
     FM221600 27015KT P6SM SCT015 BKN100=



000
FTUS43 KICT 211724
TAFSLN
TAF
KSLN 211724Z 2118/2218 17010G17KT 5SM BR OVC008
     FM212200 17015G21KT 4SM BR OVC008
     FM220100 22010KT 3SM -DZ BR OVC006
     FM221300 27015KT P6SM SCT015 BKN100
     FM221600 29015KT P6SM SCT100=



000
FTUS43 KICT 211724
TAFICT
TAF
KICT 211724Z 2118/2218 17010G17KT 3SM BR OVC008
      TEMPO 2118/2122 1SM -DZ BR OVC004
     FM212200 17015G21KT 4SM BR OVC008
     FM220100 22010KT 4SM -DZ BR OVC006
     FM221400 27015KT P6SM SCT015 BKN100
     FM221700 29015KT P6SM SCT100=



000
FTUS43 KICT 211724
TAFHUT
TAF
KHUT 211724Z 2118/2218 18010G17KT 3SM BR OVC006
      TEMPO 2118/2122 1SM -DZ BR OVC003
     FM212200 17015G21KT 4SM BR OVC006
     FM220100 22010KT 4SM -DZ BR OVC006
     FM221300 27015KT P6SM SCT015 BKN100
     FM221600 29015KT P6SM SCT100=



000
FTUS43 KICT 211724
TAFRSL
TAF
KRSL 211724Z 2118/2218 17010G17KT 5SM BR OVC009
     FM212300 17015G21KT 3SM BR OVC005
     FM220600 18015G22KT 5SM BR OVC008
     FM221100 27015KT P6SM SCT015 BKN100
     FM221500 29015KT P6SM SCT100=



000
FTUS43 KICT 211647 AAB
TAFICT
TAF AMD
KICT 211647Z 2117/2212 18009KT 2SM BR OVC008
      TEMPO 2117/2121 1/2SM -DZ FG OVC004
     FM212100 17015G21KT P6SM OVC008
     FM220300 17015KT 5SM BR OVC004=



000
FTUS43 KICT 211636 AAA
TAFSLN
TAF AMD
KSLN 211636Z 2117/2212 18015G21KT P6SM OVC008
     FM220200 17015KT 5SM BR OVC004=



000
FTUS43 KICT 211635 AAB
TAFCNU
TAF AMD
KCNU 211635Z 2117/2212 17012KT P6SM OVC008
     FM220300 17013KT 5SM BR OVC008=



000
FTUS43 KICT 211634 AAB
TAFICT
TAF AMD
KICT 211634Z 2117/2212 18009KT 4SM BR OVC010
      TEMPO 2117/2119 2SM -DZ BR OVC007
     FM211900 17015G21KT P6SM OVC008
     FM220300 17015KT 5SM BR OVC004=



000
FTUS43 KICT 211514 AAA
TAFHUT
TAF AMD
KHUT 211514Z 2115/2212 18010KT 3SM BR OVC004
      TEMPO 2115/2117 1SM BR
     FM211700 17015G21KT P6SM OVC008
     FM220200 17015KT 5SM BR OVC004=



000
FTUS43 KICT 211513 AAB
TAFRSL
TAF AMD
KRSL 211513Z 2115/2212 19012KT 5SM BR SCT007 OVC012
      TEMPO 2115/2117 BKN007
     FM211700 19015KT 5SM BR OVC015
     FM212100 19015G20KT P6SM BKN012
     FM220900 23010KT P6SM BKN025=



000
FTUS43 KICT 211410 AAA
TAFCNU
TAF AMD
KCNU 211410Z 2114/2212 18010KT P6SM SCT015 OVC022
      TEMPO 2114/2116 BKN015
     FM211600 17015G21KT P6SM OVC015
     FM220300 17013KT 5SM BR OVC008=



000
FTUS43 KICT 211410 AAA
TAFCNU
TAF AMD
KCNU 211410Z 2114/2212 18010KT P6SM SCT015 OVC022
      TEMPO 2114/2116 BKN015
     FM211600 17015G21KT P6SM OVC015
     FM220300 17013KT 5SM BR OVC008=



000
FTUS43 KICT 211408 AAB
TAFICT
TAF AMD
KICT 211408Z 2114/2212 18009KT P6SM OVC008
     FM211900 17015G21KT P6SM OVC008
     FM220300 17015KT 5SM BR OVC004=



000
FTUS43 KICT 211408 AAB
TAFICT
TAF AMD
KICT 211408Z 2114/2212 18009KT P6SM OVC008
     FM211900 17015G21KT P6SM OVC008
     FM220300 17015KT 5SM BR OVC004=



000
FTUS43 KICT 211235 AAA
TAFRSL
TAF AMD
KRSL 211235Z 2113/2212 19012KT 2SM BR OVC002
     FM211600 19015KT 5SM BR OVC008
     FM212100 19015G20KT P6SM BKN012
     FM220900 23010KT P6SM BKN025=



000
FTUS43 KICT 211235 AAA
TAFRSL
TAF AMD
KRSL 211235Z 2113/2212 19012KT 2SM BR OVC002
     FM211600 19015KT 5SM BR OVC008
     FM212100 19015G20KT P6SM BKN012
     FM220900 23010KT P6SM BKN025=



000
FTUS43 KICT 211126
TAFRSL
TAF
KRSL 211126Z 2112/2212 19012KT 1/2SM FG OVC002
     FM211500 18012KT 1SM BR OVC002
     FM211800 19015KT 5SM BR OVC008
     FM212100 19015G20KT P6SM BKN012
     FM220900 23010KT P6SM BKN025=



000
FTUS43 KICT 211126
TAFICT
TAF
KICT 211126Z 2112/2212 17009KT P6SM SCT004 OVC012
      TEMPO 2113/2116 4SM BR OVC004
     FM211600 17008KT 5SM BR OVC004
     FM211900 17015G21KT P6SM OVC008
     FM220300 17015KT 5SM BR OVC004=



000
FTUS43 KICT 211126
TAFCNU
TAF
KCNU 211126Z 2112/2212 18010KT P6SM OVC015
     FM211600 17015G21KT P6SM OVC015
     FM220300 17013KT 5SM BR OVC008=



000
FTUS43 KICT 211126
TAFHUT
TAF
KHUT 211126Z 2112/2212 18010KT 3SM BR OVC004
     FM211700 17015G21KT P6SM OVC008
     FM220200 17015KT 5SM BR OVC004=



000
FTUS43 KICT 211126
TAFSLN
TAF
KSLN 211126Z 2112/2212 18010KT 5SM BR OVC008
     FM211400 18012KT 2SM BR OVC004
     FM211700 18015G21KT P6SM OVC008
     FM220200 17015KT 5SM BR OVC004=



000
FTUS43 KICT 210830 AAA
TAFRSL
TAF AMD
KRSL 210830Z 2109/2206 19009KT 3SM BR SCT002
      TEMPO 2109/2113 1/2SM FG OVC002
     FM211300 18008KT 1SM BR OVC002
     FM211700 19013KT 5SM BR BKN008
     FM211900 19015G20KT P6SM BKN012=



000
FTUS43 KICT 210529
TAFSLN
TAF
KSLN 210529Z 2106/2206 18010KT P6SM SCT020 BKN200
      TEMPO 2106/2109 BKN012
     FM210900 17008KT 4SM BR OVC012
     FM211200 19011KT 4SM BR OVC008
     FM211600 17015G20KT 6SM BR BKN009=



000
FTUS43 KICT 210529
TAFHUT
TAF
KHUT 210529Z 2106/2206 17009KT P6SM BKN018
      TEMPO 2108/2110 4SM BR OVC007
     FM211000 17008KT 3SM BR OVC006
     FM211500 17014KT 6SM BR BKN008=



000
FTUS43 KICT 210529
TAFCNU
TAF
KCNU 210529Z 2106/2206 17006KT P6SM OVC025
     FM211000 17007KT 4SM BR OVC012
     FM211500 17013KT 5SM BR OVC012=



000
FTUS43 KICT 210529
TAFRSL
TAF
KRSL 210529Z 2106/2206 19009KT P6SM SCT015 BKN200
      TEMPO 2108/2110 5SM BR BKN012
     FM211000 18008KT 3SM BR OVC007
     FM211400 19013KT 5SM BR BKN008
     FM211700 19015G20KT P6SM BKN012=



000
FTUS43 KICT 210529
TAFICT
TAF
KICT 210529Z 2106/2206 17009KT P6SM OVC017
      TEMPO 2108/2110 BKN008 OVC012
     FM211000 17008KT 4SM BR OVC007
     FM211500 17014KT 5SM BR BKN009=



000
FTUS43 KICT 210305 AAB
TAFSLN
TAF AMD
KSLN 210305Z 2103/2124 17008KT P6SM SCT020 BKN200
     FM210600 17008KT 4SM BR OVC020
     FM211000 17008KT 2SM BR OVC008
     FM211500 17012KT 5SM BR BKN009=



000
FTUS43 KICT 210153 AAA
TAFSLN
TAF AMD
KSLN 210153Z 2102/2124 17008KT P6SM SCT020 BKN200
     FM210300 17007KT P6SM BKN020
     FM210800 17008KT 4SM BR OVC012
     FM211000 17008KT 2SM BR OVC008
     FM211500 17012KT 5SM BR BKN009=



000
FTUS43 KICT 202334
TAFRSL
TAF
KRSL 202334Z 2100/2124 17008KT P6SM SCT010 BKN200
     FM210700 18008KT 4SM BR BKN012
     FM211000 18007KT 2SM BR OVC007
     FM211400 19011KT 5SM BR BKN015
     FM211700 18014KT P6SM SCT020=



000
FTUS43 KICT 202334
TAFCNU
TAF
KCNU 202334Z 2100/2124 17008KT P6SM SCT020
     FM210400 17006KT 5SM BR OVC025
     FM211000 17007KT 4SM BR OVC012
     FM211400 17011KT 4SM BR OVC012=



000
FTUS43 KICT 202334
TAFHUT
TAF
KHUT 202334Z 2100/2124 18011KT P6SM OVC018
     FM210700 17008KT 4SM BR OVC012
     FM210900 17008KT 2SM BR OVC006
     FM211500 17010KT 5SM BR BKN007=



000
FTUS43 KICT 202334
TAFICT
TAF
KICT 202334Z 2100/2124 18010KT P6SM OVC015
     FM210700 17008KT 4SM BR OVC012
     FM211000 17008KT 3SM BR OVC008
     FM211500 17012KT 5SM BR BKN009=



000
FTUS43 KICT 202334
TAFSLN
TAF
KSLN 202334Z 2100/2124 17008KT P6SM SCT020 BKN200
     FM210200 17007KT P6SM BKN020
     FM210800 17008KT 4SM BR OVC012
     FM211000 17008KT 2SM BR OVC008
     FM211500 17012KT 5SM BR BKN009=



000
FTUS43 KICT 202217 AAA
TAFHUT
TAF AMD
KHUT 202217Z 2022/2118 18013KT P6SM SCT020 BKN200
      TEMPO 2022/2102 BKN020
     FM210700 18008KT 4SM BR OVC025
     FM210900 18008KT 3SM BR OVC008
      TEMPO 2109/2113 1SM -DZ BR OVC003
     FM211300 17008KT 3SM -DZ BR OVC008=



000
FTUS43 KICT 202213 AAD
TAFICT
TAF AMD
KICT 202213Z 2022/2118 18012KT P6SM OVC020
     FM210800 18008KT 4SM BR OVC020
     FM211000 18008KT 3SM BR OVC008
      TEMPO 2110/2114 1SM -DZ BR OVC003
     FM211400 17008KT 3SM -DZ BR OVC008=



000
FTUS43 KICT 202111 AAC
TAFCNU
TAF AMD
KCNU 202111Z 2021/2118 19006KT P6SM SCT250
     FM202300 18008KT P6SM SCT250
     FM210800 18008KT 4SM BR OVC025
     FM211000 18008KT 3SM BR OVC015
      TEMPO 2110/2114 1SM BR OVC008
     FM211400 17008KT 4SM BR OVC008=



000
FTUS43 KICT 201925 AAB
TAFCNU
TAF AMD
KCNU 201925Z 2019/2118 19006KT P6SM BKN022
      TEMPO 2019/2023 SCT022
     FM202300 18008KT P6SM SCT250
     FM210800 18008KT 4SM BR OVC025
     FM211000 18008KT 3SM BR OVC015
      TEMPO 2110/2114 1SM BR OVC008
     FM211400 17008KT 4SM BR OVC008=



000
FTUS43 KICT 201923 AAC
TAFICT
TAF AMD
KICT 201923Z 2019/2118 19013KT P6SM BKN022
     FM202300 19010KT P6SM SCT017 BKN200
     FM210800 18008KT 4SM BR OVC025
     FM211000 18008KT 3SM BR OVC008
      TEMPO 2110/2114 1SM -DZ BR OVC003
     FM211400 17008KT 3SM -DZ BR OVC008=



000
FTUS43 KICT 201811 AAB
TAFICT
TAF AMD
KICT 201811Z 2018/2118 19013KT P6SM BKN017
     FM202300 19010KT P6SM SCT017 BKN200
     FM210800 18008KT 4SM BR OVC025
     FM211000 18008KT 3SM BR OVC008
      TEMPO 2110/2114 1SM -DZ BR OVC003
     FM211400 17008KT 3SM -DZ BR OVC008=



000
FTUS43 KICT 201810 AAA
TAFCNU
TAF AMD
KCNU 201810Z 2018/2118 19006KT P6SM BKN020
     FM202300 18008KT P6SM SCT250
     FM210800 18008KT 4SM BR OVC025
     FM211000 18008KT 3SM BR OVC015
      TEMPO 2110/2114 1SM BR OVC008
     FM211400 17008KT 4SM BR OVC008=



000
FTUS43 KICT 201741
TAFCNU
TAF
KCNU 201741Z 2018/2118 19006KT P6SM BKN200
     FM210800 18008KT 4SM BR OVC025
     FM211000 18008KT 3SM BR OVC015
      TEMPO 2110/2114 1SM BR OVC008
     FM211400 17008KT 4SM BR OVC008=



000
FTUS43 KICT 201741
TAFSLN
TAF
KSLN 201741Z 2018/2118 19013KT P6SM BKN200
     FM210700 18008KT 3SM BR OVC025
     FM211000 18008KT 1SM BR OVC007
      TEMPO 2110/2114 1/2SM FG OVC002
     FM211400 17008KT 3SM -DZ BR OVC007=



000
FTUS43 KICT 201741
TAFICT
TAF
KICT 201741Z 2018/2118 19013KT P6SM SCT025 BKN200
     FM202300 19010KT P6SM BKN200
     FM210800 18008KT 4SM BR OVC025
     FM211000 18008KT 3SM BR OVC008
      TEMPO 2110/2114 1SM -DZ BR OVC003
     FM211400 17008KT 3SM -DZ BR OVC008=



000
FTUS43 KICT 201741
TAFRSL
TAF
KRSL 201741Z 2018/2118 21009KT P6SM SCT250
     FM210300 21009KT P6SM BKN100
     FM210800 20008KT 4SM BR BKN015
      TEMPO 2108/2112 2SM BR BKN008
     FM211200 18012KT 4SM BR BKN015=



000
FTUS43 KICT 201741
TAFHUT
TAF
KHUT 201741Z 2018/2118 19013KT P6SM BKN200
     FM210700 18008KT 4SM BR OVC025
     FM210900 18008KT 3SM BR OVC008
      TEMPO 2109/2113 1SM -DZ BR OVC003
     FM211300 17008KT 3SM -DZ BR OVC008=



000
FTUS43 KICT 201604 AAD
TAFSLN
TAF AMD
KSLN 201604Z 2016/2112 17006KT 4SM BR SCT002 BKN200
     FM201700 19009KT P6SM BKN200
     FM210600 18009KT P6SM OVC015
     FM211000 18009KT 4SM BR OVC007=



000
FTUS43 KICT 201603 AAB
TAFICT
TAF AMD
KICT 201603Z 2016/2112 18011KT P6SM BKN200
     FM201900 19009KT P6SM SCT025
     FM210400 18009KT P6SM OVC015
     FM210900 18009KT 4SM BR OVC007=



000
FTUS43 KICT 201502 AAA
TAFCNU
TAF AMD
KCNU 201502Z 2015/2112 19006KT P6SM OVC025
     FM201700 19008KT P6SM SCT025
     FM210400 18010KT P6SM OVC015=



000
FTUS43 KICT 201501 AAC
TAFSLN
TAF AMD
KSLN 201501Z 2015/2112 17006KT 1/4SM FG OVC002
      TEMPO 2015/2017 1SM BR OVC006
     FM201700 19009KT P6SM SCT025
     FM210600 18009KT P6SM OVC015
     FM211000 18009KT 4SM BR OVC007=



000
FTUS43 KICT 201459 AAC
TAFICT
TAF AMD
KICT 201459Z 2015/2112 18008KT P6SM FEW020 BKN200
      TEMPO 2015/2017 4SM BR
     FM201700 19009KT P6SM SCT025
     FM210400 18009KT P6SM OVC015
     FM210900 18009KT 4SM BR OVC007=



000
FTUS43 KICT 201444 AAB
TAFHUT
TAF AMD
KHUT 201444Z 2015/2112 19006KT 5SM BR SCT015
      TEMPO 2015/2017 3SM BR
     FM201700 19009KT P6SM SCT025
     FM210500 18009KT P6SM OVC015
     FM210900 18009KT 4SM BR OVC007=



000
FTUS43 KICT 201443 AAC
TAFICT
TAF AMD
KICT 201443Z 2015/2112 18008KT 5SM BR SCT020
      TEMPO 2015/2017 3SM BR BKN020
     FM201700 19009KT P6SM SCT025
     FM210400 18009KT P6SM OVC015
     FM210900 18009KT 4SM BR OVC007=



000
FTUS43 KICT 201359 AAB
TAFSLN
TAF AMD
KSLN 201359Z 2014/2112 17006KT 3SM BR BKN006
      TEMPO 2014/2016 1/2SM FG OVC002
     FM201700 19009KT P6SM SCT025
     FM210600 18009KT P6SM OVC015
     FM211000 18009KT 4SM BR OVC007=



000
FTUS43 KICT 201358 AAA
TAFHUT
TAF AMD
KHUT 201358Z 2014/2112 19006KT 5SM BR SCT003 BKN015
      TEMPO 2014/2016 3SM BR BKN003
     FM201700 19009KT P6SM SCT025
     FM210500 18009KT P6SM OVC015
     FM210900 18009KT 4SM BR OVC007=



000
FTUS43 KICT 201357 AAA
TAFSLN
TAF AMD
KSLN 201357Z 2014/2112 17006KT 5SM BR BKN006
      TEMPO 2014/2016 1SM BR OVC003
     FM201700 19009KT P6SM SCT025
     FM210600 18009KT P6SM OVC015
     FM211000 18009KT 4SM BR OVC007=



000
FTUS43 KICT 201127
TAFRSL
TAF
KRSL 201127Z 2012/2112 21009KT 5SM BR SCT250
     FM201500 21009KT P6SM SCT250
     FM210900 20008KT P6SM BKN015=



000
FTUS43 KICT 201127
TAFSLN
TAF
KSLN 201127Z 2012/2112 17006KT 5SM BR SCT003
      TEMPO 2012/2015 3SM BR BKN003
     FM201500 19009KT P6SM SCT025
     FM210600 18009KT P6SM OVC015
     FM211000 18009KT 4SM BR OVC007=



000
FTUS43 KICT 201127
TAFCNU
TAF
KCNU 201127Z 2012/2112 19006KT 5SM BR OVC015
     FM201700 19008KT P6SM SCT025
     FM210400 18010KT P6SM OVC015=



000
FTUS43 KICT 201127
TAFICT
TAF
KICT 201127Z 2012/2112 18008KT 5SM BR SCT015
      TEMPO 2012/2014 3SM BR BKN015
     FM201700 19009KT P6SM SCT025
     FM210400 18009KT P6SM OVC015
     FM210900 18009KT 4SM BR OVC007=



000
FTUS43 KICT 201127
TAFHUT
TAF
KHUT 201127Z 2012/2112 19006KT 5SM BR SCT003 BKN015
      TEMPO 2012/2015 2SM BR BKN003
     FM201500 19009KT P6SM SCT025
     FM210500 18009KT P6SM OVC015
     FM210900 18009KT 4SM BR OVC007=



000
FTUS43 KICT 200735 AAB
TAFCNU
TAF AMD
KCNU 200735Z 2008/2106 VRB03KT 5SM BR SCT005 OVC015
     FM201400 19004KT P6SM OVC015
     FM202100 18011KT P6SM BKN035=



000
FTUS43 KICT 200735 AAB
TAFCNU
TAF AMD
KCNU 200735Z 2008/2106 VRB03KT 5SM BR SCT005 OVC015
     FM201400 19004KT P6SM OVC015
     FM202100 18011KT P6SM BKN035=



000
FTUS43 KICT 200621 AAA
TAFCNU
TAF AMD
KCNU 200621Z 2006/2106 VRB03KT 4SM BR OVC004
     FM201400 19004KT 4SM BR OVC015
     FM202100 18011KT P6SM BKN035=



000
FTUS43 KICT 200520
TAFRSL
TAF
KRSL 200520Z 2006/2106 20009KT P6SM FEW015
     FM201800 22008KT P6SM SCT250
     FM210000 18008KT P6SM BKN250=



000
FTUS43 KICT 200520
TAFCNU
TAF
KCNU 200520Z 2006/2106 VRB03KT 4SM BR OVC015
      TEMPO 2008/2012 2SM BR BKN008
     FM201200 19004KT 4SM BR OVC015
     FM202100 18011KT P6SM BKN035=



000
FTUS43 KICT 200520
TAFICT
TAF
KICT 200520Z 2006/2106 21004KT 6SM BR SCT010 BKN015
      TEMPO 2009/2013 3SM BR BKN009
     FM201500 19009KT 4SM BR BKN025
     FM202100 18009KT P6SM SCT050 SCT250=



000
FTUS43 KICT 200520
TAFSLN
TAF
KSLN 200520Z 2006/2106 17006KT 4SM BR SCT015
     FM201800 19008KT P6SM FEW250=



000
FTUS43 KICT 200520
TAFHUT
TAF
KHUT 200520Z 2006/2106 19006KT 5SM BR SCT010 SCT015
      TEMPO 2009/2013 3SM BR BKN010
     FM201500 19009KT 5SM BR BKN025
     FM201800 18009KT P6SM SCT050 SCT250=



000
FTUS43 KICT 200504 AAC
TAFICT
TAF AMD
KICT 200504Z 2005/2024 21004KT 6SM BR SCT010 BKN015
     FM200800 19005KT 3SM BR BKN007
     FM201500 19009KT 4SM BR BKN025
     FM202100 19011KT P6SM SCT050 SCT250=



000
FTUS43 KICT 200504 AAB
TAFHUT
TAF AMD
KHUT 200504Z 2005/2024 21004KT 5SM BR SCT010 SCT015
     FM200800 19005KT 2SM BR BKN015
     FM201600 19009KT 5SM BR BKN025
     FM201800 20009KT P6SM SCT050 SCT250=



000
FTUS43 KICT 200502 AAC
TAFCNU
TAF AMD
KCNU 200502Z 2005/2024 34002KT 4SM BR OVC015
      TEMPO 2008/2012 2SM BR BKN008
     FM201200 16005KT 1 1/2SM BR OVC004
     FM201500 18008KT 4SM BR OVC001
     FM201800 20011KT P6SM OVC007
     FM202100 19011KT P6SM OVC025=



000
FTUS43 KICT 200423 AAB
TAFCNU
TAF AMD
KCNU 200423Z 2004/2024 34002KT 2SM BR OVC002
      TEMPO 2005/2009 1/2SM FG
     FM201200 16005KT 1 1/2SM BR OVC004
     FM201500 18008KT 4SM BR OVC001
     FM201800 20011KT P6SM OVC007
     FM202100 19011KT P6SM OVC025=



000
FTUS43 KICT 200409 AAA
TAFRSL
TAF AMD
KRSL 200409Z 2004/2024 20008KT P6SM FEW015
     FM200800 21008KT 3SM BR BKN007
     FM201600 21010KT 6SM BR BKN015
     FM201800 22008KT P6SM SKC=



000
FTUS43 KICT 200305 AAA
TAFCNU
TAF AMD
KCNU 200305Z 2003/2024 34002KT 1/4SM FG OVC001
     FM201200 16005KT 1 1/2SM BR OVC004
     FM201500 18008KT 4SM BR OVC001
     FM201800 20011KT P6SM OVC007
     FM202100 19011KT P6SM OVC025=



000
FTUS43 KICT 200302 AAA
TAFICT
TAF AMD
KICT 200302Z 2003/2024 21004KT 6SM BR SCT010 BKN015
     FM200500 19005KT 3SM BR SCT007 BKN015
     FM200800 19005KT 2SM BR BKN007
     FM201500 19009KT 4SM BR BKN025
     FM202100 19011KT P6SM SCT050 SCT250=



000
FTUS43 KICT 200302 AAA
TAFHUT
TAF AMD
KHUT 200302Z 2003/2024 21004KT 5SM BR SCT010 BKN015
     FM200500 19005KT 3SM BR BKN007
     FM200800 19005KT 2SM BR BKN005
     FM201600 19009KT 5SM BR BKN025
     FM201800 20009KT P6SM SCT050 SCT250=



000
FTUS43 KICT 192339
TAFCNU
TAF
KCNU 192339Z 2000/2024 34002KT 2SM BR OVC003
     FM200300 21003KT 1/2SM FG OVC001
     FM201200 16005KT 1 1/2SM BR OVC004
     FM201500 18008KT 4SM BR OVC001
     FM201800 20011KT P6SM OVC007
     FM202100 19011KT P6SM OVC025=



000
FTUS43 KICT 192339
TAFRSL
TAF
KRSL 192339Z 2000/2024 20008KT P6SM FEW015
     FM200400 21008KT 3SM BR BKN007
     FM201600 21010KT 6SM BR BKN015
     FM201800 22008KT P6SM SKC=



000
FTUS43 KICT 192339
TAFICT
TAF
KICT 192339Z 2000/2024 21004KT 6SM BR SCT010 BKN015
     FM200300 19005KT 3SM BR SCT007 BKN015
     FM200800 19005KT 2SM BR BKN007
     FM201500 19009KT 4SM BR BKN025
     FM202100 19011KT P6SM SCT050 SCT250=



000
FTUS43 KICT 192339
TAFSLN
TAF
KSLN 192339Z 2000/2024 17006KT 5SM BR SCT008 OVC015
     FM200700 19005KT 3SM BR BKN007
     FM201600 21010KT 6SM BR BKN015
     FM201700 20008KT P6SM FEW250=



000
FTUS43 KICT 192339
TAFHUT
TAF
KHUT 192339Z 2000/2024 21004KT 5SM BR SCT010 BKN015
     FM200300 19005KT 3SM BR BKN007
     FM200800 19005KT 2SM BR BKN005
     FM201600 19009KT 5SM BR BKN025
     FM201800 20009KT P6SM SCT050 SCT250=



000
FTUS43 KICT 192129 AAB
TAFSLN
TAF AMD
KSLN 192129Z 1921/2018 17006KT 5SM BR SCT008 OVC015
      TEMPO 1921/2001 BKN008
     FM200700 19005KT 3SM BR BKN007
     FM201600 21010KT 6SM BR BKN015=



000
FTUS43 KICT 192124 AAB
TAFCNU
TAF AMD
KCNU 192124Z 1921/2018 02004KT 4SM BR OVC005
      TEMPO 1921/1924 2SM BR OVC003
     FM200200 19005KT 3SM BR SCT005 OVC009=



000
FTUS43 KICT 192122 AAB
TAFHUT
TAF AMD
KHUT 192122Z 1921/2018 21005KT 6SM BR SCT009 BKN015
      TEMPO 1921/2001 BKN009
     FM200300 19005KT 3SM BR SCT007 BKN015
     FM200800 19005KT 2SM BR BKN005
     FM201600 19009KT 5SM BR BKN010=



000
FTUS43 KICT 192119 AAC
TAFICT
TAF AMD
KICT 192119Z 1921/2018 20004KT 6SM BR SCT007 BKN015
      TEMPO 1921/2001 BKN009
     FM200300 19005KT 3SM BR SCT007 BKN015
     FM200800 19005KT 2SM BR BKN007
     FM201500 20012KT P6SM BKN020=



000
FTUS43 KICT 192009 AAB
TAFRSL
TAF AMD
KRSL 192009Z 1920/2018 20011KT P6SM SCT015
     FM200400 21008KT 3SM BR BKN007
     FM201600 21010KT 6SM BR BKN012=



000
FTUS43 KICT 192009 AAB
TAFRSL
TAF AMD
KRSL 192009Z 1920/2018 20011KT P6SM SCT015
     FM200400 21008KT 3SM BR BKN007
     FM201600 21010KT 6SM BR BKN012=



000
FTUS43 KICT 191914 AAA
TAFSLN
TAF AMD
KSLN 191914Z 1919/2018 19008KT 6SM BR SCT007 OVC015
     FM200300 19005KT 3SM BR SCT007 BKN012
     FM200700 19005KT 3SM BR BKN007
     FM201600 21010KT 6SM BR BKN015=



000
FTUS43 KICT 191912 AAA
TAFRSL
TAF AMD
KRSL 191912Z 1919/2018 19010KT 6SM BR SCT008 BKN015
      TEMPO 1920/1924 SCT015
     FM200700 21008KT 3SM BR BKN007
     FM201600 21010KT 6SM BR BKN012=



000
FTUS43 KICT 191909 AAA
TAFCNU
TAF AMD
KCNU 191909Z 1919/2018 02004KT 3SM BR OVC005
      TEMPO 1919/1921 1 1/2SM BR OVC003
     FM200200 19005KT 3SM BR BKN007 OVC012=



000
FTUS43 KICT 191903 AAA
TAFHUT
TAF AMD
KHUT 191903Z 1919/2018 21005KT 5SM BR OVC006
     FM192100 21005KT 6SM BR SCT007 BKN011
     FM200300 19005KT 3SM BR SCT007 BKN015
     FM200800 19005KT 2SM BR BKN005
     FM201600 19009KT 5SM BR BKN010=



000
FTUS43 KICT 191900 AAA
TAFICT
TAF AMD
KICT 191900Z 1919/2018 19004KT 6SM BR BKN007
     FM192100 19004KT 6SM BR SCT007 BKN015
     FM200300 19005KT 3SM BR SCT007 BKN015
     FM200800 19005KT 2SM BR BKN007
     FM201500 20012KT P6SM BKN020=



000
FTUS43 KICT 191735
TAFICT
TAF
KICT 191735Z 1918/2018 18005KT 5SM BR SCT007 OVC020
     FM200300 19005KT 3SM BR SCT007 BKN015
     FM200800 19005KT 2SM BR BKN007
     FM201500 20012KT P6SM BKN020=



000
FTUS43 KICT 191735
TAFCNU
TAF
KCNU 191735Z 1918/2018 VRB03KT 3SM BR OVC005
     FM200200 19005KT 3SM BR BKN007 OVC012=



000
FTUS43 KICT 191735
TAFRSL
TAF
KRSL 191735Z 1918/2018 17005KT 5SM BR OVC015
     FM200300 21008KT P6SM SCT007 OVC015
     FM200700 21008KT 3SM BR BKN007
     FM201600 21010KT 6SM BR BKN012=



000
FTUS43 KICT 191735
TAFHUT
TAF
KHUT 191735Z 1918/2018 18005KT P6SM OVC005
     FM192100 18005KT P6SM BKN012
     FM200300 19005KT 3SM BR SCT007 BKN015
     FM200800 19005KT 2SM BR BKN005
     FM201600 19009KT 5SM BR BKN010=



000
FTUS43 KICT 191735
TAFSLN
TAF
KSLN 191735Z 1918/2018 18008KT 6SM BR SCT007 OVC020
     FM200300 19005KT 3SM BR SCT007 BKN012
     FM200700 19005KT 3SM BR BKN007
     FM201600 21010KT 6SM BR BKN015=



000
FTUS43 KICT 191628 AAA
TAFSLN
TAF AMD
KSLN 191628Z 1916/2012 18008KT 5SM BR OVC007
     FM192100 18005KT P6SM BKN012
     FM200300 19005KT 3SM BR BKN015=



000
FTUS43 KICT 191354 AAA
TAFHUT
TAF AMD
KHUT 191354Z 1914/2012 VRB04KT 3SM BR OVC003
     FM191800 18005KT P6SM OVC007
     FM192100 18005KT P6SM BKN012
     FM200300 19005KT 3SM BR BKN015=



000
FTUS43 KICT 191352 AAA
TAFICT
TAF AMD
KICT 191352Z 1914/2012 VRB04KT 4SM BR OVC004
     FM191800 18005KT P6SM OVC007
     FM192100 18005KT P6SM BKN012
     FM200300 19005KT 3SM BR BKN015=



000
FTUS43 KICT 191120
TAFICT
TAF
KICT 191120Z 1912/2012 VRB04KT 5SM BR OVC004
      TEMPO 1912/1915 2SM BR VV002
     FM191800 18005KT 5SM BR OVC007
     FM192100 18005KT P6SM BKN012
     FM200300 19005KT 3SM BR BKN015=



000
FTUS43 KICT 191120
TAFHUT
TAF
KHUT 191120Z 1912/2012 VRB04KT 3SM BR OVC003
      TEMPO 1912/1915 3/4SM BR VV002
     FM191800 18005KT 5SM BR OVC007
     FM192100 18005KT P6SM BKN012
     FM200300 19005KT 3SM BR BKN015=



000
FTUS43 KICT 191120
TAFCNU
TAF
KCNU 191120Z 1912/2012 VRB03KT 3SM BR OVC004
      TEMPO 1912/1915 1SM BR VV002
     FM191900 VRB05KT P6SM OVC012
     FM200200 19005KT 3SM BR BKN007 OVC012=



000
FTUS43 KICT 191120
TAFRSL
TAF
KRSL 191120Z 1912/2012 17005KT 5SM BR OVC015
     FM200300 21010KT P6SM SCT007 OVC015=



000
FTUS43 KICT 191120
TAFSLN
TAF
KSLN 191120Z 1912/2012 15004KT 2SM BR OVC003
     FM191800 18005KT 5SM BR OVC007
     FM192100 18005KT P6SM BKN012
     FM200300 19005KT 3SM BR BKN015=



000
FTUS43 KICT 191040 AAA
TAFSLN
TAF AMD
KSLN 191040Z 1911/2006 15004KT 2SM BR OVC003
     FM191500 18006KT 6SM BR OVC012
     FM191800 19009KT P6SM BKN015 OVC035
     FM192100 19006KT P6SM SCT035 SCT200=



000
FTUS43 KICT 190747 AAA
TAFCNU
TAF AMD
KCNU 190747Z 1908/2006 VRB03KT 3SM BR OVC004
      TEMPO 1911/1915 1/2SM FG VV002
     FM191700 VRB05KT 4SM BR BKN007 OVC015
     FM192100 VRB03KT 5SM BR BKN015
     FM200300 19005KT 3SM BR BKN007 BKN015=



000
FTUS43 KICT 190520
TAFRSL
TAF
KRSL 190520Z 1906/2006 15007KT 6SM BR OVC012
     FM190900 17005KT 4SM BR BKN008
     FM191500 18006KT 4SM BR OVC012
     FM191800 19009KT P6SM BKN035 OVC050=



000
FTUS43 KICT 190520
TAFSLN
TAF
KSLN 190520Z 1906/2006 15004KT 6SM BR OVC008
     FM190900 VRB03KT 4SM BR BKN005
     FM191500 18006KT 6SM BR OVC012
     FM191800 19009KT P6SM BKN015 OVC035
     FM192100 19006KT P6SM SCT035 SCT200=



000
FTUS43 KICT 190520
TAFHUT
TAF
KHUT 190520Z 1906/2006 VRB03KT 4SM BR OVC004
      TEMPO 1911/1915 1/2SM FG VV002
     FM191800 18005KT P6SM OVC015
     FM192000 18005KT P6SM FEW015 SCT050 BKN100
     FM200300 19005KT 3SM BR BKN015=



000
FTUS43 KICT 190520
TAFICT
TAF
KICT 190520Z 1906/2006 VRB03KT 4SM BR OVC004
      TEMPO 1911/1915 1/2SM FG VV002
     FM191800 18005KT P6SM OVC015
     FM192000 18005KT P6SM FEW015 SCT050 BKN100
     FM200300 19005KT 3SM BR BKN015=



000
FTUS43 KICT 190520
TAFCNU
TAF
KCNU 190520Z 1906/2006 VRB03KT 4SM BR OVC007
     FM190900 VRB03KT 2SM BR BKN004
      TEMPO 1911/1915 1/2SM FG VV002
     FM191800 VRB05KT 4SM BR BKN007 OVC015
     FM192100 VRB03KT 5SM BR BKN015
     FM200300 19005KT 3SM BR BKN007 BKN015=



    US Dept of Commerce
    National Oceanic and Atmospheric Administration
    National Weather Service
    1325 East West Highway
    Silver Spring, MD 20910
    Page Author: NWS Internet Services Team
Disclaimer
Information Quality
Credits
Glossary
Privacy Policy
Freedom of Information Act (FOIA)
About Us
Career Opportunities